PST,Max TemperatureF,Mean TemperatureF,Min TemperatureF,Max Dew PointF,MeanDew PointF,Min DewpointF,Max Humidity, Mean Humidity, Min Humidity, Max Sea Level PressureIn, Mean Sea Level PressureIn, Min Sea Level PressureIn, Max VisibilityMiles, Mean VisibilityMiles, Min VisibilityMiles, Max Wind SpeedMPH, Mean Wind SpeedMPH, Max Gust SpeedMPH,PrecipitationIn, CloudCover, Events, WindDirDegrees
2013-11-1,60,50,41,52,50,41,100,95,72,30.29,30.16,29.94,10,8,0,18,3,23,0.03,4,Fog-Rain,86
2013-11-2,53,50,46,50,46,41,100,84,67,30.16,30.05,29.83,10,5,2,30,15,44,0.42,6,Rain,270
2013-11-3,50,46,42,46,44,41,100,92,76,30.23,30.19,30.15,10,6,2,13,5,18,0.31,7,Rain,182
2013-11-4,50,47,44,50,47,45,100,95,87,30.20,30.17,30.13,10,6,2,21,8,29,0.34,8,Rain,182
2013-11-5,53,52,50,52,51,50,100,99,94,30.27,30.19,30.12,7,3,0,23,15,34,0.28,8,Fog-Rain,193
2013-11-6,55,53,51,55,54,52,100,99,94,30.30,30.24,30.12,10,4,0,12,7,,0.06,8,Fog-Rain,195
2013-11-7,53,50,46,54,49,45,100,93,76,30.20,30.09,29.98,10,4,2,26,13,36,0.45,7,Rain,200
2013-11-8,51,48,44,50,46,45,100,93,82,30.24,30.19,30.12,10,6,2,10,5,,0.00,4,Rain,157
2013-11-9,51,46,42,46,44,41,100,89,82,30.13,30.07,30.03,10,8,3,13,5,,0.00,5,,74
2013-11-10,62,54,46,52,47,43,100,85,59,30.10,30.06,30.03,10,8,4,16,8,,0.00,2,,111
2013-11-11,62,54,46,50,47,43,100,79,55,30.10,30.05,29.99,10,10,5,17,8,24,0.00,0,Rain,94
2013-11-12,55,52,50,55,52,48,100,97,88,30.46,30.30,30.09,10,5,0,18,9,26,0.24,8,Fog-Rain,178
2013-11-13,53,48,44,52,48,43,100,98,88,30.50,30.44,30.34,10,5,0,12,3,,0.00,5,Fog,44
2013-11-14,50,46,41,48,45,39,100,96,87,30.33,30.23,30.15,10,6,0,8,3,,0.21,6,Fog-Rain,137
2013-11-15,50,44,37,50,44,37,100,98,93,30.16,29.98,29.70,10,5,0,22,7,29,0.15,7,Fog-Rain,186
2013-11-16,51,48,46,50,44,41,100,83,67,29.93,29.81,29.69,7,6,3,24,10,30,0.06,8,Rain,261
2013-11-17,51,48,46,50,46,45,100,87,76,30.04,30.00,29.93,10,7,2,21,11,30,0.03,8,Rain,188
2013-11-18,53,50,48,52,48,45,100,91,77,30.02,29.89,29.77,10,6,2,34,15,47,0.44,8,Rain,184
2013-11-19,51,44,37,52,44,32,100,89,66,30.06,29.88,29.75,10,7,2,29,17,39,0.23,6,Rain,6
2013-11-20,48,39,30,34,31,27,100,82,57,30.37,30.21,30.06,10,10,10,10,7,,0.00,0,,49
2013-11-21,48,37,26,28,21,14,93,56,30,30.54,30.48,30.37,10,10,10,23,6,30,0.00,0,,56
2013-11-22,53,45,37,23,18,12,40,34,28,30.50,30.40,30.29,10,10,10,31,23,38,0.00,0,,80
2013-11-23,59,52,44,28,22,18,40,34,29,30.30,30.18,30.09,10,10,10,33,20,39,0.00,0,,78
2013-11-24,59,50,41,41,30,23,76,51,34,30.25,30.18,30.10,10,10,10,17,11,20,0.00,0,,98
2013-11-25,55,46,37,45,36,32,93,72,44,30.33,30.29,30.25,10,10,10,12,7,,0.00,0,,101
2013-11-26,55,47,39,43,38,34,81,71,58,30.26,30.16,30.04,10,10,10,14,6,,0.00,4,,90
2013-11-27,59,52,44,39,35,32,71,57,42,30.03,29.97,29.92,10,10,10,16,12,20,0.00,0,,84
2013-11-28,55,47,39,43,36,32,87,66,44,30.21,30.09,30.00,10,9,4,14,3,,0.00,0,,65
2013-11-29,51,43,35,46,40,34,100,88,71,30.38,30.31,30.22,10,9,0,9,4,,0.00,3,Fog-Rain,57
2013-11-30,51,46,41,50,45,39,100,92,76,30.42,30.37,30.30,10,6,2,17,3,26,0.02,7,Rain,172